Terminal Aerodrome Forecast
Issued by NWS

Home | Current Version | Previous Version | Text Only | Print | Product List | Glossary Off
Versions: 1 2 3 4 5 6 7 8 9 10 11 12 13 14 15 16 17 18 19

000
FTUS43 KBIS 020529
TAFDIK
TAF
KDIK 020529Z 0206/0306 20008KT P6SM SCT100
     FM021200 23009KT P6SM SCT180
     FM021800 29012G22KT P6SM SCT130
     FM030100 33009KT P6SM SCT110=

USA.gov is the U.S. government's official web portal to all federal, state and local government web resources and services.